This is the latest recevied weather packets stored in our database for station/object N4RCT. If no packets are shown the sender has not sent any weather packets the latest 10 day(s).
| Time | Temp. | Humidity | Pressure | Rain* | Wind** | Luminosity | Snow |
|---|---|---|---|---|---|---|---|
| 1777054460 | 27.22° C | 48% | 1011.5 hPa | 0 mm | - | 608 W/m² | - |
| 1777054158 | 27.22° C | 46% | 1011.6 hPa | 0 mm | - | 314 W/m² | - |
| 1777053855 | 27.22° C | 45% | 1011.6 hPa | 0 mm | - | 268 W/m² | - |
| 1777053550 | 28.33° C | 44% | 1011.8 hPa | 0 mm | - | 664 W/m² | - |
| 1777053245 | 27.78° C | 45% | 1011.8 hPa | 0 mm | - | 796 W/m² | - |
| 1777052941 | 27.22° C | 46% | 1011.8 hPa | 0 mm | - | 789 W/m² | - |
| 1777052637 | 27.22° C | 47% | 1012 hPa | 0 mm | - | 778 W/m² | - |
| 1777052332 | 26.67° C | 51% | 1012.1 hPa | 0 mm | - | 776 W/m² | - |
| 1777052028 | 26.67° C | 50% | 1012 hPa | 0 mm | - | 744 W/m² | - |
| 1777051726 | 26.67° C | 55% | 1012.3 hPa | 0 mm | - | 719 W/m² | - |
| 1777051422 | 26.67° C | 55% | 1012.3 hPa | 0 mm | - | 684 W/m² | - |
| 1777051118 | 25.56° C | 59% | 1012.4 hPa | 0 mm | - | 581 W/m² | - |
| 1777050813 | 26.67° C | 56% | 1012.5 hPa | 0 mm | - | 212 W/m² | - |
| 1777050509 | 25.56° C | 58% | 1012.5 hPa | 0 mm | - | 749 W/m² | - |
| 1777050208 | 25.56° C | 58% | 1012.5 hPa | 0 mm | - | 444 W/m² | - |
| 1777049904 | 26.11° C | 59% | 1012.6 hPa | 0 mm | - | 285 W/m² | - |
| 1777049604 | 26.67° C | 56% | 1012.9 hPa | 0 mm | - | 506 W/m² | - |
| 1777049302 | 26.11° C | 60% | 1012.9 hPa | 0 mm | - | 903 W/m² | - |
| 1777048999 | 26.67° C | 58% | 1013 hPa | 0 mm | - | 637 W/m² | - |
| 1777048694 | 26.11° C | 61% | 1013 hPa | 0 mm | - | 1032 W/m² | - |
| 1777048389 | 25.56° C | 63% | 1012.9 hPa | 0 mm | - | 1015 W/m² | - |
| 1777048089 | 25° C | 61% | 1013.3 hPa | 0 mm | - | 633 W/m² | - |
| 1777047784 | 25° C | 63% | 1013.5 hPa | 0 mm | - | 1023 W/m² | - |
| 1777047481 | 23.89° C | 66% | 1013.6 hPa | 0 mm | - | 345 W/m² | - |
| 1777047175 | 25° C | 64% | 1013.5 hPa | 0 mm | - | 303 W/m² | - |
* Rain latest hour (hover to see other rain measurements)
** Current wind speed in m/s (hover to see current wind gust speed)